Time;durP1;ratioP1;P1;durP2;ratioP2;P2;SDS_P1;SDS_P2;PMS_P1;PMS_P2;Temp;Humidity;BMP_temperature;BMP_pressure;BME280_temperature;BME280_humidity;BME280_pressure;Samples;Min_cycle;Max_cycle;Signal;HPM_P1;HPM_P2
2022/04/19 00:00:36;;;;;;;;;;;9.90;76.20;;;;;;5030899;28;19940;-85
2022/04/19 00:03:03;;;;;;;;;;;9.90;76.40;;;;;;5031043;28;19996;-86
2022/04/19 00:05:32;;;;;;;;;;;9.90;76.40;;;;;;5038592;28;19929;-85
2022/04/19 00:07:59;;;;;;;;;;;9.80;76.30;;;;;;5034530;28;19971;-85
2022/04/19 00:10:28;;;;;;;;;;;9.80;76.40;;;;;;5027461;28;19941;-85
2022/04/19 00:12:55;;;;;;;;;;;9.80;76.40;;;;;;5033814;28;19936;-85
2022/04/19 00:15:24;;;;;;;;;;;9.80;76.40;;;;;;5026206;28;19925;-85
2022/04/19 00:17:51;;;;;;;;;;;9.80;76.50;;;;;;5049999;28;19979;-85
2022/04/19 00:20:17;;;;;;;;;;;9.70;76.50;;;;;;5033610;28;19925;-85
2022/04/19 00:22:44;;;;;;;;;;;9.70;76.50;;;;;;5025675;28;19963;-85
2022/04/19 00:25:12;;;;;;;;;;;9.70;76.50;;;;;;5028540;28;20319;-86
2022/04/19 00:27:39;;;;;;;;;;;9.70;76.60;;;;;;5047125;28;19925;-86
2022/04/19 00:30:06;;;;;;;;;;;9.60;76.50;;;;;;5030121;28;19937;-85
2022/04/19 00:32:35;;;;;;;;;;;9.60;76.50;;;;;;5036231;28;19929;-86
2022/04/19 00:35:02;;;;;;;;;;;9.60;76.60;;;;;;5029640;28;19929;-85
2022/04/19 00:37:29;;;;;;;;;;;9.50;76.60;;;;;;5023529;28;19925;-85
2022/04/19 00:39:58;;;;;;;;;;;9.50;76.60;;;;;;5028709;28;19925;-85
2022/04/19 00:42:27;;;;;;;;;;;9.50;76.70;;;;;;5036122;28;19936;-85
2022/04/19 00:44:54;;;;;;;;;;;9.50;76.80;;;;;;5027903;28;19972;-86
2022/04/19 00:47:21;;;;;;;;;;;9.40;76.70;;;;;;5035414;28;19925;-85
2022/04/19 00:49:50;;;;;;;;;;;9.40;76.70;;;;;;5034790;28;20399;-85
2022/04/19 00:52:17;;;;;;;;;;;9.40;76.70;;;;;;5031741;28;19932;-85
2022/04/19 00:54:47;;;;;;;;;;;9.40;76.70;;;;;;5031360;28;19967;-85
2022/04/19 00:57:15;;;;;;;;;;;9.30;76.70;;;;;;5025495;28;20388;-86
2022/04/19 00:59:45;;;;;;;;;;;9.30;76.80;;;;;;5032158;28;20376;-86
2022/04/19 01:02:12;;;;;;;;;;;9.30;76.80;;;;;;5026216;28;19937;-86
2022/04/19 01:04:40;;;;;;;;;;;9.30;76.80;;;;;;5032065;28;20136;-86
2022/04/19 01:07:11;;;;;;;;;;;9.30;76.90;;;;;;5028254;28;19926;-86
2022/04/19 01:09:40;;;;;;;;;;;9.20;76.80;;;;;;5025423;28;19926;-85
2022/04/19 01:14:55;;;;;;;;;;;9.20;76.90;;;;;;5024932;28;20338;-86
2022/04/19 01:17:23;;;;;;;;;;;9.10;76.80;;;;;;5035560;28;19926;-85
2022/04/19 01:19:50;;;;;;;;;;;9.10;76.80;;;;;;5051361;28;19975;-86
2022/04/19 01:22:22;;;;;;;;;;;9.10;76.90;;;;;;5031660;28;20391;-86
2022/04/19 01:24:50;;;;;;;;;;;9.10;76.90;;;;;;5026823;28;19956;-86
2022/04/19 01:27:18;;;;;;;;;;;9.00;77.00;;;;;;5025504;28;19933;-85
2022/04/19 01:29:46;;;;;;;;;;;9.00;76.90;;;;;;5019908;28;19969;-85
2022/04/19 01:32:14;;;;;;;;;;;9.00;77.10;;;;;;5028159;28;19991;-86
2022/04/19 01:34:41;;;;;;;;;;;9.00;77.00;;;;;;5019854;28;20021;-86
2022/04/19 01:37:15;;;;;;;;;;;9.00;77.60;;;;;;5033375;28;19948;-85
2022/04/19 01:42:33;;;;;;;;;;;8.90;77.00;;;;;;5021313;28;19925;-85
2022/04/19 01:45:03;;;;;;;;;;;8.90;77.10;;;;;;5024999;28;20050;-86
2022/04/19 01:47:31;;;;;;;;;;;8.80;76.90;;;;;;5029729;28;19933;-86
2022/04/19 01:50:00;;;;;;;;;;;8.80;76.90;;;;;;5033242;28;20020;-85
2022/04/19 01:52:29;;;;;;;;;;;8.80;77.10;;;;;;5026107;28;19925;-85
2022/04/19 01:54:59;;;;;;;;;;;8.80;77.00;;;;;;5027394;28;20461;-86
2022/04/19 01:57:32;;;;;;;;;;;8.70;77.00;;;;;;5027962;28;19925;-85
2022/04/19 01:59:59;;;;;;;;;;;8.70;77.00;;;;;;5029486;28;19929;-85
2022/04/19 02:02:43;;;;;;;;;;;8.70;77.00;;;;;;5029907;28;19932;-86
2022/04/19 02:05:11;;;;;;;;;;;8.70;77.10;;;;;;5046915;28;19972;-85
2022/04/19 02:07:39;;;;;;;;;;;8.60;77.10;;;;;;5030064;28;19925;-86
2022/04/19 02:10:09;;;;;;;;;;;8.60;77.10;;;;;;5031244;28;19948;-86
2022/04/19 02:12:36;;;;;;;;;;;8.60;77.10;;;;;;5031846;28;19936;-86
2022/04/19 02:15:22;;;;;;;;;;;8.60;77.20;;;;;;5029038;28;20394;-86
2022/04/19 02:17:53;;;;;;;;;;;8.60;77.20;;;;;;5030352;23;19940;-76
2022/04/19 02:20:20;;;;;;;;;;;8.60;77.20;;;;;;5005930;28;19926;-76
2022/04/19 02:22:47;;;;;;;;;;;8.50;77.20;;;;;;5007919;28;20422;-76
2022/04/19 02:25:17;;;;;;;;;;;8.50;77.10;;;;;;5023439;28;20303;-76
2022/04/19 02:27:44;;;;;;;;;;;8.50;77.10;;;;;;5022739;28;20380;-76
2022/04/19 02:30:15;;;;;;;;;;;8.50;77.20;;;;;;5021975;28;19929;-76
2022/04/19 02:32:46;;;;;;;;;;;8.40;77.10;;;;;;5006736;28;19935;-76
2022/04/19 02:35:15;;;;;;;;;;;8.40;77.20;;;;;;5025507;28;19933;-77
2022/04/19 02:37:47;;;;;;;;;;;8.40;77.20;;;;;;5009289;28;20311;-77
2022/04/19 02:40:16;;;;;;;;;;;8.40;77.10;;;;;;5009556;28;19925;-76
2022/04/19 02:42:43;;;;;;;;;;;8.40;77.20;;;;;;5023765;28;20013;-76
2022/04/19 02:45:12;;;;;;;;;;;8.30;77.10;;;;;;5014029;28;20409;-76
2022/04/19 02:47:42;;;;;;;;;;;8.30;77.10;;;;;;5010983;28;19932;-76
2022/04/19 02:50:09;;;;;;;;;;;8.30;77.10;;;;;;5025785;28;20396;-76
2022/04/19 02:52:36;;;;;;;;;;;8.30;77.20;;;;;;5025234;28;20357;-76
2022/04/19 02:55:03;;;;;;;;;;;8.20;77.10;;;;;;5008892;28;20051;-77
2022/04/19 02:57:32;;;;;;;;;;;8.20;77.20;;;;;;5018557;28;19932;-77
2022/04/19 02:59:59;;;;;;;;;;;8.20;77.30;;;;;;5013943;28;20013;-76
2022/04/19 03:02:29;;;;;;;;;;;8.20;77.40;;;;;;5028465;28;19926;-76
2022/04/19 03:04:56;;;;;;;;;;;8.20;77.30;;;;;;5010629;28;19930;-76
2022/04/19 03:07:24;;;;;;;;;;;8.20;77.20;;;;;;5034013;28;20397;-77
2022/04/19 03:09:51;;;;;;;;;;;8.10;77.20;;;;;;5011908;28;19976;-76
2022/04/19 03:12:18;;;;;;;;;;;8.10;77.30;;;;;;5021457;28;20344;-76
2022/04/19 03:15:01;;;;;;;;;;;8.10;77.30;;;;;;5030041;28;19932;-76
2022/04/19 03:17:28;;;;;;;;;;;8.10;77.20;;;;;;5017440;28;19975;-76
2022/04/19 03:19:55;;;;;;;;;;;8.00;77.30;;;;;;5027914;28;19925;-75
2022/04/19 03:22:22;;;;;;;;;;;8.00;77.20;;;;;;5006741;28;20346;-76
2022/04/19 03:27:44;;;;;;;;;;;8.00;77.30;;;;;;5007054;28;20015;-76
2022/04/19 03:30:19;;;;;;;;;;;7.90;77.30;;;;;;5027958;28;19945;-76
2022/04/19 03:32:48;;;;;;;;;;;8.00;77.40;;;;;;5009662;28;19926;-76
2022/04/19 03:35:15;;;;;;;;;;;7.90;77.40;;;;;;5010851;28;19975;-76
2022/04/19 03:37:43;;;;;;;;;;;7.90;78.00;;;;;;5021726;28;19964;-76
2022/04/19 03:40:11;;;;;;;;;;;7.90;77.50;;;;;;5022539;28;19975;-76
2022/04/19 03:42:40;;;;;;;;;;;7.80;77.30;;;;;;5008604;28;19926;-77
2022/04/19 03:45:07;;;;;;;;;;;7.90;77.50;;;;;;5011132;28;19931;-77
2022/04/19 03:47:35;;;;;;;;;;;7.80;77.60;;;;;;5017218;28;20033;-76
2022/04/19 03:50:03;;;;;;;;;;;7.80;77.50;;;;;;5025339;28;19925;-76
2022/04/19 03:52:31;;;;;;;;;;;7.80;77.50;;;;;;5026383;28;19925;-76
2022/04/19 03:54:58;;;;;;;;;;;7.80;77.50;;;;;;5008965;28;19926;-76
2022/04/19 03:57:25;;;;;;;;;;;7.70;77.40;;;;;;5026379;28;20441;-75
2022/04/19 03:59:54;;;;;;;;;;;7.70;77.50;;;;;;5011537;28;19972;-76
2022/04/19 04:02:25;;;;;;;;;;;7.70;77.60;;;;;;5010202;28;19926;-76
2022/04/19 04:04:53;;;;;;;;;;;7.70;77.70;;;;;;5017810;28;20421;-76
2022/04/19 04:07:21;;;;;;;;;;;7.70;77.80;;;;;;5022965;28;19929;-76
2022/04/19 04:09:49;;;;;;;;;;;7.70;77.80;;;;;;5010749;28;19926;-76
2022/04/19 04:12:16;;;;;;;;;;;7.60;77.70;;;;;;5009642;28;20012;-76
2022/04/19 04:14:44;;;;;;;;;;;7.60;77.80;;;;;;5026393;28;19930;-76
2022/04/19 04:17:11;;;;;;;;;;;7.60;77.80;;;;;;5032672;28;20392;-75
2022/04/19 04:19:38;;;;;;;;;;;7.60;77.90;;;;;;5026405;28;19926;-76
2022/04/19 04:22:06;;;;;;;;;;;7.60;77.90;;;;;;5021254;28;20162;-76
2022/04/19 04:24:33;;;;;;;;;;;7.60;78.00;;;;;;5013929;28;19968;-76
2022/04/19 04:27:00;;;;;;;;;;;7.50;77.90;;;;;;5026787;28;19925;-76
2022/04/19 04:29:30;;;;;;;;;;;7.50;78.00;;;;;;5006308;28;20434;-76
2022/04/19 04:31:58;;;;;;;;;;;7.50;78.10;;;;;;5011744;28;20391;-76
2022/04/19 04:34:25;;;;;;;;;;;7.50;78.10;;;;;;5026709;28;20333;-76
2022/04/19 04:36:52;;;;;;;;;;;7.50;78.00;;;;;;5007941;28;19934;-76
2022/04/19 04:39:23;;;;;;;;;;;7.50;78.10;;;;;;5002333;28;19984;-76
2022/04/19 04:42:09;;;;;;;;;;;7.50;78.10;;;;;;5003333;28;20007;-76
2022/04/19 04:44:36;;;;;;;;;;;7.40;78.00;;;;;;5024430;28;20310;-75
2022/04/19 04:49:50;;;;;;;;;;;7.40;78.20;;;;;;5018271;28;20392;-76
2022/04/19 04:52:20;;;;;;;;;;;7.40;78.10;;;;;;5010530;28;20303;-76
2022/04/19 04:54:50;;;;;;;;;;;7.40;78.20;;;;;;5029018;28;19925;-77
2022/04/19 04:57:23;;;;;;;;;;;7.40;78.20;;;;;;5006020;28;20784;-77
2022/04/19 04:59:51;;;;;;;;;;;7.40;78.30;;;;;;5017448;28;19929;-76
2022/04/19 05:02:22;;;;;;;;;;;7.30;78.10;;;;;;5022128;28;19972;-76
2022/04/19 05:04:50;;;;;;;;;;;7.30;78.10;;;;;;5026276;28;19931;-75
2022/04/19 05:07:18;;;;;;;;;;;7.30;78.10;;;;;;5006653;28;19940;-76
2022/04/19 05:09:52;;;;;;;;;;;7.30;78.00;;;;;;5005646;28;20023;-76
2022/04/19 05:12:20;;;;;;;;;;;7.30;78.10;;;;;;5025228;28;19925;-76
2022/04/19 05:14:46;;;;;;;;;;;7.30;78.20;;;;;;5009662;28;19929;-76
2022/04/19 05:17:13;;;;;;;;;;;7.20;78.10;;;;;;5008590;28;19952;-75
2022/04/19 05:19:42;;;;;;;;;;;7.20;78.10;;;;;;5018216;28;20020;-76
2022/04/19 05:22:10;;;;;;;;;;;7.20;78.20;;;;;;5024184;28;19925;-76
2022/04/19 05:24:37;;;;;;;;;;;7.20;78.20;;;;;;5016693;28;19930;-76
2022/04/19 05:27:06;;;;;;;;;;;7.20;78.20;;;;;;5025778;28;19944;-76
2022/04/19 05:29:35;;;;;;;;;;;7.20;78.20;;;;;;5030616;28;19972;-76
2022/04/19 05:32:02;;;;;;;;;;;7.20;78.30;;;;;;5007624;28;20020;-75
2022/04/19 05:34:29;;;;;;;;;;;7.20;78.00;;;;;;5032496;28;19925;-76
2022/04/19 05:36:56;;;;;;;;;;;7.10;77.80;;;;;;5003167;28;19925;-76
2022/04/19 05:39:23;;;;;;;;;;;7.10;78.00;;;;;;5031151;28;19929;-76
2022/04/19 05:41:50;;;;;;;;;;;6.90;78.70;;;;;;5005382;28;19960;-76
2022/04/19 05:46:46;;;;;;;;;;;6.70;79.50;;;;;;4926706;22;19925;-77
2022/04/19 05:49:13;;;;;;;;;;;6.70;79.90;;;;;;5020480;28;19945;-77
2022/04/19 05:51:42;;;;;;;;;;;6.60;79.90;;;;;;5005709;28;19929;-77
2022/04/19 05:54:09;;;;;;;;;;;6.60;80.10;;;;;;5007625;28;20045;-77
2022/04/19 05:56:37;;;;;;;;;;;6.60;80.10;;;;;;5009318;28;20327;-78
2022/04/19 05:59:04;;;;;;;;;;;6.70;80.40;;;;;;5021684;28;19934;-77
2022/04/19 06:04:51;;;;;;;;;;;6.70;80.70;;;;;;5003702;28;19925;-79
2022/04/19 06:07:03;;;;;;;;;;;6.70;80.80;;;;;;5018950;28;19926;-78
2022/04/19 06:09:31;;;;;;;;;;;6.70;80.80;;;;;;5008147;28;19932;-77
2022/04/19 06:11:58;;;;;;;;;;;6.80;81.00;;;;;;4999079;28;19926;-77
2022/04/19 06:14:26;;;;;;;;;;;6.80;81.10;;;;;;5005480;28;19984;-78
2022/04/19 06:16:53;;;;;;;;;;;6.80;81.10;;;;;;5010155;28;19932;-79
2022/04/19 06:19:22;;;;;;;;;;;6.80;81.20;;;;;;5011409;28;19925;-77
2022/04/19 06:21:49;;;;;;;;;;;6.90;81.40;;;;;;5006754;28;20473;-79
2022/04/19 06:24:16;;;;;;;;;;;6.90;81.40;;;;;;5006823;28;19953;-77
2022/04/19 06:26:43;;;;;;;;;;;7.00;81.50;;;;;;5007485;28;19976;-77
2022/04/19 06:29:18;;;;;;;;;;;7.00;81.40;;;;;;5001820;28;19979;-77
2022/04/19 06:31:53;;;;;;;;;;;7.00;81.40;;;;;;5004008;28;19960;-77
2022/04/19 06:34:28;;;;;;;;;;;7.10;81.60;;;;;;5012673;28;19973;-77
2022/04/19 06:37:11;;;;;;;;;;;7.10;81.70;;;;;;5003021;28;19926;-78
2022/04/19 06:39:42;;;;;;;;;;;7.20;82.00;;;;;;5007672;28;19929;-77
2022/04/19 06:42:09;;;;;;;;;;;7.20;82.00;;;;;;5007280;28;19979;-77
2022/04/19 06:45:10;;;;;;;;;;;7.20;82.00;;;;;;5008559;28;19925;-78
2022/04/19 06:47:39;;;;;;;;;;;7.30;82.10;;;;;;5006785;28;20009;-79
2022/04/19 06:50:09;;;;;;;;;;;7.40;82.10;;;;;;5008776;28;19930;-77
2022/04/19 06:52:36;;;;;;;;;;;7.30;82.10;;;;;;5006781;28;19969;-78
2022/04/19 06:55:08;;;;;;;;;;;7.40;82.30;;;;;;5010076;28;19926;-77
2022/04/19 06:57:39;;;;;;;;;;;7.40;82.50;;;;;;5011159;28;20368;-77
2022/04/19 07:00:07;;;;;;;;;;;7.40;82.60;;;;;;5009508;28;19926;-77
2022/04/19 07:02:34;;;;;;;;;;;7.50;82.90;;;;;;5024096;28;19937;-77
2022/04/19 07:05:28;;;;;;;;;;;7.50;83.00;;;;;;5014391;28;20387;-77
2022/04/19 07:07:55;;;;;;;;;;;7.50;83.10;;;;;;5002006;28;19930;-77
2022/04/19 07:10:22;;;;;;;;;;;7.50;83.20;;;;;;5012537;28;19937;-78
2022/04/19 07:13:01;;;;;;;;;;;7.50;83.40;;;;;;5005086;28;19952;-77
2022/04/19 07:15:28;;;;;;;;;;;7.60;83.60;;;;;;5012051;28;19930;-78
2022/04/19 07:17:55;;;;;;;;;;;7.60;83.70;;;;;;5011934;28;19925;-77
2022/04/19 07:28:36;;;;;;;;;;;7.70;84.20;;;;;;5000137;28;19922;-77
2022/04/19 07:33:30;;;;;;;;;;;7.70;84.40;;;;;;5010544;28;19925;-78
2022/04/19 07:35:58;;;;;;;;;;;7.70;84.50;;;;;;5043540;22;19924;-77
2022/04/19 07:38:27;;;;;;;;;;;7.70;84.50;;;;;;5043680;28;20023;-78
2022/04/19 07:41:12;;;;;;;;;;;7.70;84.50;;;;;;5031238;28;20472;-77
2022/04/19 07:43:43;;;;;;;;;;;7.70;84.60;;;;;;5041217;28;19933;-78
2022/04/19 07:46:11;;;;;;;;;;;7.80;84.70;;;;;;5010794;28;19929;-77
2022/04/19 07:48:38;;;;;;;;;;;7.80;84.70;;;;;;5014540;28;20441;-79
2022/04/19 07:51:05;;;;;;;;;;;7.80;84.60;;;;;;5015825;28;19931;-77
2022/04/19 07:53:34;;;;;;;;;;;7.80;84.70;;;;;;5041080;28;19925;-77
2022/04/19 07:56:02;;;;;;;;;;;7.90;84.70;;;;;;5012038;28;19979;-77
2022/04/19 07:58:29;;;;;;;;;;;7.90;84.50;;;;;;5012318;28;20409;-78
2022/04/19 08:00:56;;;;;;;;;;;7.90;84.60;;;;;;5013581;28;20401;-77
2022/04/19 08:03:23;;;;;;;;;;;7.90;84.50;;;;;;5014737;28;19925;-77
2022/04/19 08:05:51;;;;;;;;;;;7.90;84.20;;;;;;5015587;28;19976;-78
2022/04/19 08:08:18;;;;;;;;;;;7.90;84.30;;;;;;5013236;28;20354;-77
2022/04/19 08:10:48;;;;;;;;;;;8.00;83.90;;;;;;5014720;28;19971;-77
2022/04/19 08:13:16;;;;;;;;;;;7.90;84.10;;;;;;5014789;28;19933;-77
2022/04/19 08:15:43;;;;;;;;;;;8.00;84.40;;;;;;5039484;28;20408;-77
2022/04/19 08:18:14;;;;;;;;;;;8.00;84.10;;;;;;5015977;28;20399;-79
2022/04/19 08:20:44;;;;;;;;;;;8.00;84.10;;;;;;5020364;28;20384;-78
2022/04/19 08:23:11;;;;;;;;;;;8.00;84.40;;;;;;5016787;28;20273;-77
2022/04/19 08:25:38;;;;;;;;;;;8.10;83.90;;;;;;5010893;28;20323;-78
2022/04/19 08:28:07;;;;;;;;;;;8.10;83.90;;;;;;5013815;28;19925;-77
2022/04/19 08:30:34;;;;;;;;;;;8.10;83.50;;;;;;5032590;28;19932;-77
2022/04/19 08:33:01;;;;;;;;;;;8.10;83.90;;;;;;5015163;28;19929;-77
2022/04/19 08:35:29;;;;;;;;;;;8.10;83.70;;;;;;5014829;28;19932;-77
2022/04/19 08:37:56;;;;;;;;;;;8.10;84.10;;;;;;5013654;28;19926;-78
2022/04/19 08:40:25;;;;;;;;;;;8.20;84.00;;;;;;5023240;28;20554;-78
2022/04/19 08:42:56;;;;;;;;;;;8.20;83.50;;;;;;5009044;28;19931;-77
2022/04/19 08:45:26;;;;;;;;;;;8.20;84.00;;;;;;5030749;28;20016;-77
2022/04/19 08:47:53;;;;;;;;;;;8.20;83.50;;;;;;5026475;28;19925;-78
2022/04/19 08:50:21;;;;;;;;;;;8.30;84.20;;;;;;5034749;28;19925;-77
2022/04/19 08:57:29;;;;;;;;;;;8.30;84.00;;;;;;5014003;28;19947;-77
2022/04/19 08:58:20;;;;;;;;;;;8.30;84.10;;;;;;5022014;28;19963;-77
2022/04/19 09:00:48;;;;;;;;;;;8.40;83.90;;;;;;5025994;28;19979;-77
2022/04/19 09:03:15;;;;;;;;;;;8.40;83.90;;;;;;5030026;28;19929;-77
2022/04/19 09:05:50;;;;;;;;;;;8.40;83.40;;;;;;5033319;28;19933;-77
2022/04/19 09:08:18;;;;;;;;;;;8.40;83.30;;;;;;5023920;28;19932;-80
2022/04/19 09:10:45;;;;;;;;;;;8.40;82.60;;;;;;5035044;28;20453;-78
2022/04/19 09:13:14;;;;;;;;;;;8.50;83.00;;;;;;5032369;28;19929;-78
2022/04/19 09:15:41;;;;;;;;;;;8.50;83.20;;;;;;5023918;28;19926;-77
2022/04/19 09:18:13;;;;;;;;;;;8.50;83.10;;;;;;5026383;28;19932;-78
2022/04/19 09:20:40;;;;;;;;;;;8.50;82.70;;;;;;5022189;28;19932;-78
2022/04/19 09:23:08;;;;;;;;;;;8.60;82.90;;;;;;5031978;28;19925;-78
2022/04/19 09:25:36;;;;;;;;;;;8.50;83.00;;;;;;5015874;28;20026;-77
2022/04/19 09:28:05;;;;;;;;;;;8.60;82.60;;;;;;5023958;28;19933;-78
2022/04/19 09:30:34;;;;;;;;;;;8.60;82.40;;;;;;5012688;28;19925;-80
2022/04/19 09:33:01;;;;;;;;;;;8.60;82.40;;;;;;5031230;28;19925;-78
2022/04/19 09:35:31;;;;;;;;;;;8.70;82.50;;;;;;4996258;28;20338;-77
2022/04/19 09:37:58;;;;;;;;;;;8.70;82.10;;;;;;5024781;28;19925;-79
2022/04/19 09:40:32;;;;;;;;;;;8.70;82.30;;;;;;5035326;28;19979;-77
2022/04/19 09:43:08;;;;;;;;;;;8.80;81.90;;;;;;5024844;28;19932;-77
2022/04/19 09:45:45;;;;;;;;;;;8.80;81.90;;;;;;5031948;28;19932;-77
2022/04/19 09:48:15;;;;;;;;;;;8.80;81.40;;;;;;5028760;28;19925;-80
2022/04/19 09:50:48;;;;;;;;;;;8.90;81.30;;;;;;5036729;28;19960;-78
2022/04/19 09:53:17;;;;;;;;;;;8.90;81.30;;;;;;5012039;28;19929;-81
2022/04/19 09:55:46;;;;;;;;;;;8.90;81.00;;;;;;5031311;28;19929;-78
2022/04/19 09:58:13;;;;;;;;;;;9.00;81.80;;;;;;5031758;28;19972;-77
2022/04/19 10:00:40;;;;;;;;;;;9.00;82.20;;;;;;5030907;28;19925;-77
2022/04/19 10:08:38;;;;;;;;;;;9.10;81.60;;;;;;5031568;28;19965;-77
2022/04/19 10:11:05;;;;;;;;;;;9.10;81.60;;;;;;5031555;28;19964;-77
2022/04/19 10:13:33;;;;;;;;;;;9.10;81.30;;;;;;5030685;28;19931;-78
2022/04/19 10:16:00;;;;;;;;;;;9.10;81.40;;;;;;5013057;28;19925;-78
2022/04/19 10:18:27;;;;;;;;;;;9.20;81.90;;;;;;5030803;28;19929;-79
2022/04/19 10:20:58;;;;;;;;;;;9.20;82.30;;;;;;5006833;28;19979;-77
2022/04/19 10:23:33;;;;;;;;;;;9.20;82.50;;;;;;5011018;28;19925;-78
2022/04/19 10:26:12;;;;;;;;;;;9.20;82.50;;;;;;5031053;28;19934;-77
2022/04/19 10:28:39;;;;;;;;;;;9.20;82.40;;;;;;5043109;28;20000;-78
2022/04/19 10:31:06;;;;;;;;;;;9.20;82.50;;;;;;5034953;28;19925;-78
2022/04/19 10:33:48;;;;;;;;;;;9.20;82.30;;;;;;5021879;28;19971;-78
2022/04/19 10:36:17;;;;;;;;;;;9.30;82.30;;;;;;5036307;28;20394;-80
2022/04/19 10:38:45;;;;;;;;;;;9.30;82.60;;;;;;5013928;28;20016;-79
2022/04/19 10:41:12;;;;;;;;;;;9.30;82.40;;;;;;5026038;28;20489;-78
2022/04/19 10:43:39;;;;;;;;;;;9.30;82.40;;;;;;5033921;28;19925;-77
2022/04/19 10:46:22;;;;;;;;;;;9.30;82.30;;;;;;5036170;28;20375;-79
2022/04/19 10:49:07;;;;;;;;;;;9.40;82.00;;;;;;5034408;28;19925;-78
2022/04/19 10:51:35;;;;;;;;;;;9.40;81.70;;;;;;5029852;28;19933;-79
2022/04/19 10:54:02;;;;;;;;;;;9.50;81.70;;;;;;5019178;28;20296;-78
2022/04/19 10:56:29;;;;;;;;;;;9.50;81.80;;;;;;5014736;28;20011;-77
2022/04/19 10:58:56;;;;;;;;;;;9.50;82.10;;;;;;5029587;28;19929;-77
2022/04/19 11:01:30;;;;;;;;;;;9.50;82.40;;;;;;5035309;28;19971;-77
2022/04/19 11:03:57;;;;;;;;;;;9.50;82.30;;;;;;5033547;28;19925;-77
2022/04/19 11:06:32;;;;;;;;;;;9.50;82.00;;;;;;5036895;28;20003;-79
2022/04/19 11:09:19;;;;;;;;;;;9.60;82.10;;;;;;5028072;28;20012;-78
2022/04/19 11:11:48;;;;;;;;;;;9.60;82.20;;;;;;5040773;28;20019;-77
2022/04/19 11:14:45;;;;;;;;;;;9.60;81.90;;;;;;5028935;28;20299;-78
2022/04/19 11:17:19;;;;;;;;;;;9.60;81.20;;;;;;5022336;28;19939;-77
2022/04/19 11:19:52;;;;;;;;;;;9.70;81.80;;;;;;5031737;28;19926;-78
2022/04/19 11:22:24;;;;;;;;;;;9.70;81.40;;;;;;5025569;28;20314;-79
2022/04/19 11:25:05;;;;;;;;;;;9.70;81.40;;;;;;5032642;28;19932;-77
2022/04/19 11:27:51;;;;;;;;;;;9.80;81.60;;;;;;5049438;28;20043;-78
2022/04/19 11:30:19;;;;;;;;;;;9.80;81.20;;;;;;5014173;28;20020;-78
2022/04/19 11:32:49;;;;;;;;;;;9.90;81.30;;;;;;5022968;28;19925;-78
2022/04/19 11:35:16;;;;;;;;;;;9.90;81.40;;;;;;5030387;28;19925;-78
2022/04/19 11:37:44;;;;;;;;;;;9.90;81.70;;;;;;5039230;28;19929;-78
2022/04/19 11:48:38;;;;;;;;;;;9.90;82.10;;;;;;5015626;28;20311;-78
2022/04/19 11:51:08;;;;;;;;;;;10.00;80.50;;;;;;5030993;28;19933;-78
2022/04/19 11:53:35;;;;;;;;;;;10.00;80.30;;;;;;5014011;28;19933;-78
2022/04/19 11:56:03;;;;;;;;;;;10.00;80.80;;;;;;5044527;28;20383;-77
2022/04/19 11:58:31;;;;;;;;;;;10.00;79.10;;;;;;5015874;28;20345;-78
2022/04/19 12:01:01;;;;;;;;;;;10.10;79.40;;;;;;5033594;28;19952;-78
2022/04/19 12:03:28;;;;;;;;;;;10.10;80.00;;;;;;5033188;28;19994;-78
2022/04/19 12:05:56;;;;;;;;;;;10.10;79.80;;;;;;5015670;28;19925;-78
2022/04/19 12:08:29;;;;;;;;;;;10.30;80.00;;;;;;5014681;28;19960;-78
2022/04/19 12:13:24;;;;;;;;;;;10.30;80.20;;;;;;5020222;22;19932;-76
2022/04/19 12:15:51;;;;;;;;;;;10.30;80.70;;;;;;5042286;28;20004;-74
2022/04/19 12:18:31;;;;;;;;;;;10.40;80.90;;;;;;5060730;28;20753;-75
2022/04/19 12:20:58;;;;;;;;;;;10.40;81.00;;;;;;5037339;28;19929;-76
2022/04/19 12:23:24;;;;;;;;;;;10.40;81.20;;;;;;5045612;28;19925;-76
2022/04/19 12:25:58;;;;;;;;;;;10.40;81.20;;;;;;5043013;28;19933;-77
2022/04/19 12:28:34;;;;;;;;;;;10.50;81.50;;;;;;5044715;28;20035;-77
2022/04/19 12:31:01;;;;;;;;;;;10.50;81.30;;;;;;5045222;28;19925;-77
2022/04/19 12:33:28;;;;;;;;;;;10.50;81.60;;;;;;5037567;28;19929;-76
2022/04/19 12:35:57;;;;;;;;;;;10.60;81.90;;;;;;5042145;28;19951;-76
2022/04/19 12:38:29;;;;;;;;;;;10.60;82.00;;;;;;5035895;28;19932;-76
2022/04/19 12:40:56;;;;;;;;;;;10.70;81.90;;;;;;5045686;28;19929;-76
2022/04/19 12:43:37;;;;;;;;;;;10.70;81.90;;;;;;5046136;28;19933;-76
2022/04/19 12:46:05;;;;;;;;;;;10.80;82.20;;;;;;5045190;28;19925;-75
2022/04/19 12:48:32;;;;;;;;;;;10.80;82.20;;;;;;5039574;28;19925;-76
2022/04/19 12:51:03;;;;;;;;;;;10.80;82.20;;;;;;5047751;28;19925;-76
2022/04/19 12:53:32;;;;;;;;;;;10.90;82.30;;;;;;5045270;28;20023;-75
2022/04/19 12:59:05;;;;;;;;;;;10.90;82.30;;;;;;5035548;28;19996;-75
2022/04/19 13:01:32;;;;;;;;;;;11.00;82.20;;;;;;5047121;28;19924;-75
2022/04/19 13:03:59;;;;;;;;;;;11.00;82.40;;;;;;5048350;28;19925;-76
2022/04/19 13:14:37;;;;;;;;;;;11.20;82.80;;;;;;5041651;28;20434;-75
2022/04/19 13:17:04;;;;;;;;;;;11.30;82.50;;;;;;5046753;28;19951;-75
2022/04/19 13:19:31;;;;;;;;;;;11.50;82.30;;;;;;5047849;28;19979;-76
2022/04/19 13:22:01;;;;;;;;;;;11.60;82.00;;;;;;5054628;28;19925;-76
2022/04/19 13:24:28;;;;;;;;;;;11.60;82.20;;;;;;5038664;28;19995;-76
2022/04/19 13:26:55;;;;;;;;;;;11.60;82.40;;;;;;5039178;28;19929;-76
2022/04/19 13:29:22;;;;;;;;;;;11.70;82.40;;;;;;5033143;28;19925;-76
2022/04/19 13:31:49;;;;;;;;;;;11.70;82.40;;;;;;5038612;28;19929;-75
2022/04/19 13:34:18;;;;;;;;;;;11.80;82.20;;;;;;5039926;28;19925;-75
2022/04/19 13:36:45;;;;;;;;;;;11.90;82.00;;;;;;5040581;28;19929;-76
2022/04/19 13:39:13;;;;;;;;;;;12.00;81.60;;;;;;5032445;28;19937;-76
2022/04/19 13:41:41;;;;;;;;;;;12.00;81.50;;;;;;5044611;28;19931;-76
2022/04/19 13:44:10;;;;;;;;;;;12.10;81.70;;;;;;5046779;28;19928;-76
2022/04/19 13:46:36;;;;;;;;;;;12.20;81.70;;;;;;5036470;28;20053;-75
2022/04/19 13:49:03;;;;;;;;;;;12.20;81.50;;;;;;5038351;28;20391;-76
2022/04/19 13:51:42;;;;;;;;;;;12.30;81.40;;;;;;5691621;23;20063;-81
2022/04/19 13:54:11;;;;;;;;;;;12.20;81.30;;;;;;5032807;28;20027;-81
2022/04/19 14:03:32;;;;;;;;;;;12.40;81.50;;;;;;4962110;29;19937;-82
2022/04/19 14:13:05;;;;;;;;;;;12.50;82.00;;;;;;4959693;28;19947;-82
2022/04/19 14:19:01;;;;;;;;;;;12.70;82.00;;;;;;5011694;28;19928;-82
2022/04/19 14:33:24;;;;;;;;;;;13.10;81.20;;;;;;5036675;28;19972;-83
2022/04/19 14:35:53;;;;;;;;;;;13.20;80.30;;;;;;5041862;28;19925;-83
2022/04/19 14:38:23;;;;;;;;;;;13.30;80.80;;;;;;5027909;28;19925;-83
2022/04/19 14:40:51;;;;;;;;;;;13.30;81.10;;;;;;5017365;28;20028;-83
2022/04/19 14:43:20;;;;;;;;;;;13.40;81.00;;;;;;5022357;28;19961;-83
2022/04/19 14:45:47;;;;;;;;;;;13.40;79.70;;;;;;5016994;28;20307;-83
2022/04/19 14:48:14;;;;;;;;;;;13.40;79.70;;;;;;5011351;28;20016;-83
2022/04/19 14:53:28;;;;;;;;;;;13.50;81.30;;;;;;5015882;28;20299;-84
2022/04/19 14:55:55;;;;;;;;;;;13.50;81.60;;;;;;5025636;28;20388;-83
2022/04/19 14:58:22;;;;;;;;;;;13.50;79.40;;;;;;5027890;28;19928;-85
2022/04/19 15:00:50;;;;;;;;;;;13.60;79.70;;;;;;5015046;28;19966;-83
2022/04/19 15:03:17;;;;;;;;;;;13.60;79.90;;;;;;5009961;28;19983;-83
2022/04/19 15:05:44;;;;;;;;;;;13.70;78.90;;;;;;5016962;28;20003;-84
2022/04/19 15:08:11;;;;;;;;;;;13.80;78.00;;;;;;5027091;28;19926;-84
2022/04/19 15:10:39;;;;;;;;;;;13.80;77.70;;;;;;5019654;28;19925;-83
2022/04/19 15:13:06;;;;;;;;;;;13.90;75.70;;;;;;5013959;28;19929;-84
2022/04/19 15:15:34;;;;;;;;;;;13.90;75.50;;;;;;5012130;28;20284;-84
2022/04/19 15:18:01;;;;;;;;;;;14.00;76.80;;;;;;5031055;28;20618;-84
2022/04/19 15:20:28;;;;;;;;;;;14.00;76.80;;;;;;5020423;28;20019;-83
2022/04/19 15:22:55;;;;;;;;;;;14.00;77.00;;;;;;5014419;28;19925;-83
2022/04/19 15:25:22;;;;;;;;;;;14.00;76.70;;;;;;5016564;28;19933;-83
2022/04/19 15:27:50;;;;;;;;;;;14.10;78.20;;;;;;5017968;28;19930;-84
2022/04/19 15:30:17;;;;;;;;;;;14.00;78.80;;;;;;5016454;28;19972;-86
2022/04/19 15:32:44;;;;;;;;;;;14.00;78.60;;;;;;5010972;28;20288;-84
2022/04/19 15:35:11;;;;;;;;;;;14.00;77.40;;;;;;5016529;28;19925;-85
2022/04/19 15:37:38;;;;;;;;;;;14.10;75.90;;;;;;5013283;28;19925;-83
2022/04/19 15:40:06;;;;;;;;;;;14.20;77.30;;;;;;5015694;28;19925;-84
2022/04/19 15:42:33;;;;;;;;;;;14.20;78.70;;;;;;5011022;28;20021;-84
2022/04/19 15:45:01;;;;;;;;;;;14.20;78.00;;;;;;5014621;28;19968;-84
2022/04/19 15:47:28;;;;;;;;;;;14.20;77.30;;;;;;5022206;28;19932;-83
2022/04/19 15:49:56;;;;;;;;;;;14.30;74.80;;;;;;5010574;28;20351;-84
2022/04/19 15:52:23;;;;;;;;;;;14.30;76.30;;;;;;5017208;28;19925;-87
2022/04/19 15:54:51;;;;;;;;;;;14.30;76.20;;;;;;5011491;28;19930;-84
2022/04/19 15:57:18;;;;;;;;;;;14.40;76.30;;;;;;5019484;28;20474;-84
2022/04/19 15:59:45;;;;;;;;;;;14.40;75.30;;;;;;5016538;28;20020;-84
2022/04/19 16:02:13;;;;;;;;;;;14.40;76.30;;;;;;5030804;28;19925;-84
2022/04/19 16:04:40;;;;;;;;;;;14.50;76.70;;;;;;5012529;28;19932;-85
2022/04/19 16:07:07;;;;;;;;;;;14.50;75.90;;;;;;5010520;28;19933;-85